sensor_id;sensor_type;location;lat;lon;timestamp;temperature;humidity
22966;DHT22;11649;48.090;9.754;2022-12-07T00:02:14;3.80;99.90
22966;DHT22;11649;48.090;9.754;2022-12-07T00:04:40;3.90;99.90
22966;DHT22;11649;48.090;9.754;2022-12-07T00:07:07;4.00;99.90
22966;DHT22;11649;48.090;9.754;2022-12-07T00:09:34;4.00;99.90
22966;DHT22;11649;48.090;9.754;2022-12-07T00:12:00;4.10;99.90
22966;DHT22;11649;48.090;9.754;2022-12-07T00:14:27;4.00;99.90
22966;DHT22;11649;48.090;9.754;2022-12-07T00:16:54;4.10;99.90
22966;DHT22;11649;48.090;9.754;2022-12-07T00:19:20;4.10;99.90
22966;DHT22;11649;48.090;9.754;2022-12-07T00:21:47;4.20;99.90
22966;DHT22;11649;48.090;9.754;2022-12-07T00:24:14;4.10;99.90
22966;DHT22;11649;48.090;9.754;2022-12-07T00:26:41;4.00;99.90
22966;DHT22;11649;48.090;9.754;2022-12-07T00:29:16;4.10;99.90
22966;DHT22;11649;48.090;9.754;2022-12-07T00:31:43;4.10;99.90
22966;DHT22;11649;48.090;9.754;2022-12-07T00:34:16;4.00;99.90
22966;DHT22;11649;48.090;9.754;2022-12-07T00:36:43;4.10;99.90
22966;DHT22;11649;48.090;9.754;2022-12-07T00:39:10;4.00;99.90
22966;DHT22;11649;48.090;9.754;2022-12-07T00:41:37;4.00;99.90
22966;DHT22;11649;48.090;9.754;2022-12-07T00:44:04;4.00;99.90
22966;DHT22;11649;48.090;9.754;2022-12-07T00:46:31;4.00;99.90
22966;DHT22;11649;48.090;9.754;2022-12-07T00:48:58;4.10;99.90
22966;DHT22;11649;48.090;9.754;2022-12-07T00:51:25;4.00;99.90
22966;DHT22;11649;48.090;9.754;2022-12-07T00:53:52;3.90;99.90
22966;DHT22;11649;48.090;9.754;2022-12-07T00:56:24;3.90;99.90
22966;DHT22;11649;48.090;9.754;2022-12-07T00:59:02;4.00;99.90
22966;DHT22;11649;48.090;9.754;2022-12-07T01:01:32;4.10;99.90
22966;DHT22;11649;48.090;9.754;2022-12-07T01:03:59;4.10;99.90
22966;DHT22;11649;48.090;9.754;2022-12-07T01:06:28;4.00;99.90
22966;DHT22;11649;48.090;9.754;2022-12-07T01:08:56;4.10;99.90
22966;DHT22;11649;48.090;9.754;2022-12-07T01:11:25;4.20;99.90
22966;DHT22;11649;48.090;9.754;2022-12-07T01:13:54;4.30;99.90
22966;DHT22;11649;48.090;9.754;2022-12-07T01:16:22;4.20;99.90
22966;DHT22;11649;48.090;9.754;2022-12-07T01:18:51;4.30;99.90
22966;DHT22;11649;48.090;9.754;2022-12-07T01:21:26;4.30;99.90
22966;DHT22;11649;48.090;9.754;2022-12-07T01:23:53;4.20;99.90
22966;DHT22;11649;48.090;9.754;2022-12-07T01:26:22;4.00;99.90
22966;DHT22;11649;48.090;9.754;2022-12-07T01:28:50;4.10;99.90
22966;DHT22;11649;48.090;9.754;2022-12-07T01:31:20;4.10;99.90
22966;DHT22;11649;48.090;9.754;2022-12-07T01:33:49;4.20;99.90
22966;DHT22;11649;48.090;9.754;2022-12-07T01:36:24;4.30;99.90
22966;DHT22;11649;48.090;9.754;2022-12-07T01:38:55;4.00;99.90
22966;DHT22;11649;48.090;9.754;2022-12-07T01:41:26;4.10;99.90
22966;DHT22;11649;48.090;9.754;2022-12-07T01:46:56;4.30;99.90
22966;DHT22;11649;48.090;9.754;2022-12-07T01:49:27;4.30;99.90
22966;DHT22;11649;48.090;9.754;2022-12-07T01:52:12;4.40;99.90
22966;DHT22;11649;48.090;9.754;2022-12-07T01:54:40;4.40;99.90
22966;DHT22;11649;48.090;9.754;2022-12-07T01:57:08;4.30;99.90
22966;DHT22;11649;48.090;9.754;2022-12-07T01:59:35;4.30;99.90
22966;DHT22;11649;48.090;9.754;2022-12-07T02:02:04;4.40;99.90
22966;DHT22;11649;48.090;9.754;2022-12-07T02:04:36;4.30;99.90
22966;DHT22;11649;48.090;9.754;2022-12-07T02:07:03;4.10;99.90
22966;DHT22;11649;48.090;9.754;2022-12-07T02:09:31;3.90;99.90
22966;DHT22;11649;48.090;9.754;2022-12-07T02:11:57;4.00;99.90
22966;DHT22;11649;48.090;9.754;2022-12-07T02:14:24;4.10;99.90
22966;DHT22;11649;48.090;9.754;2022-12-07T02:20:03;4.10;99.90
22966;DHT22;11649;48.090;9.754;2022-12-07T02:25:29;3.80;99.90
22966;DHT22;11649;48.090;9.754;2022-12-07T02:28:09;3.80;99.90
22966;DHT22;11649;48.090;9.754;2022-12-07T02:30:43;3.70;99.90
22966;DHT22;11649;48.090;9.754;2022-12-07T02:33:18;3.80;99.90
22966;DHT22;11649;48.090;9.754;2022-12-07T02:36:11;3.90;99.90
22966;DHT22;11649;48.090;9.754;2022-12-07T02:38:50;4.00;99.90
22966;DHT22;11649;48.090;9.754;2022-12-07T02:41:25;4.00;99.90
22966;DHT22;11649;48.090;9.754;2022-12-07T02:44:03;3.90;99.90
22966;DHT22;11649;48.090;9.754;2022-12-07T02:46:37;3.90;99.90
22966;DHT22;11649;48.090;9.754;2022-12-07T02:49:05;4.10;99.90
22966;DHT22;11649;48.090;9.754;2022-12-07T02:51:33;4.10;99.90
22966;DHT22;11649;48.090;9.754;2022-12-07T02:54:01;4.00;99.90
22966;DHT22;11649;48.090;9.754;2022-12-07T02:56:30;4.00;99.90
22966;DHT22;11649;48.090;9.754;2022-12-07T03:07:11;3.70;99.90
22966;DHT22;11649;48.090;9.754;2022-12-07T03:10:08;3.70;99.90
22966;DHT22;11649;48.090;9.754;2022-12-07T03:15:22;3.70;99.90
22966;DHT22;11649;48.090;9.754;2022-12-07T03:17:51;3.80;99.90
22966;DHT22;11649;48.090;9.754;2022-12-07T03:20:20;3.80;99.90
22966;DHT22;11649;48.090;9.754;2022-12-07T03:22:49;3.80;99.90
22966;DHT22;11649;48.090;9.754;2022-12-07T03:25:18;3.80;99.90
22966;DHT22;11649;48.090;9.754;2022-12-07T03:28:02;3.80;99.90
22966;DHT22;11649;48.090;9.754;2022-12-07T03:33:15;3.70;99.90
22966;DHT22;11649;48.090;9.754;2022-12-07T03:36:19;3.80;99.90
22966;DHT22;11649;48.090;9.754;2022-12-07T03:39:00;3.80;99.90
22966;DHT22;11649;48.090;9.754;2022-12-07T03:41:31;3.80;99.90
22966;DHT22;11649;48.090;9.754;2022-12-07T03:44:00;3.80;99.90
22966;DHT22;11649;48.090;9.754;2022-12-07T03:49:10;3.80;99.90
22966;DHT22;11649;48.090;9.754;2022-12-07T03:54:43;3.80;99.90
22966;DHT22;11649;48.090;9.754;2022-12-07T03:57:12;3.90;99.90
22966;DHT22;11649;48.090;9.754;2022-12-07T03:59:40;3.80;99.90
22966;DHT22;11649;48.090;9.754;2022-12-07T04:02:11;3.80;99.90
22966;DHT22;11649;48.090;9.754;2022-12-07T04:04:39;3.70;99.90
22966;DHT22;11649;48.090;9.754;2022-12-07T04:07:06;3.70;99.90
22966;DHT22;11649;48.090;9.754;2022-12-07T04:09:33;3.70;99.90
22966;DHT22;11649;48.090;9.754;2022-12-07T04:12:00;3.80;99.90
22966;DHT22;11649;48.090;9.754;2022-12-07T04:14:27;3.80;99.90
22966;DHT22;11649;48.090;9.754;2022-12-07T04:16:57;3.80;99.90
22966;DHT22;11649;48.090;9.754;2022-12-07T04:19:27;3.80;99.90
22966;DHT22;11649;48.090;9.754;2022-12-07T04:21:55;3.80;99.90
22966;DHT22;11649;48.090;9.754;2022-12-07T04:24:23;3.70;99.90
22966;DHT22;11649;48.090;9.754;2022-12-07T04:26:50;3.70;99.90
22966;DHT22;11649;48.090;9.754;2022-12-07T04:29:17;3.70;99.90
22966;DHT22;11649;48.090;9.754;2022-12-07T04:31:46;3.70;99.90
22966;DHT22;11649;48.090;9.754;2022-12-07T04:34:13;3.70;99.90
22966;DHT22;11649;48.090;9.754;2022-12-07T04:36:41;3.60;99.90
22966;DHT22;11649;48.090;9.754;2022-12-07T04:39:18;3.60;99.90
22966;DHT22;11649;48.090;9.754;2022-12-07T04:41:45;3.60;99.90
22966;DHT22;11649;48.090;9.754;2022-12-07T04:44:13;3.70;99.90
22966;DHT22;11649;48.090;9.754;2022-12-07T04:46:41;3.60;99.90
22966;DHT22;11649;48.090;9.754;2022-12-07T04:49:09;3.60;99.90
22966;DHT22;11649;48.090;9.754;2022-12-07T04:51:36;3.50;99.90
22966;DHT22;11649;48.090;9.754;2022-12-07T04:54:03;3.50;99.90
22966;DHT22;11649;48.090;9.754;2022-12-07T04:56:30;3.40;99.90
22966;DHT22;11649;48.090;9.754;2022-12-07T04:58:58;3.50;99.90
22966;DHT22;11649;48.090;9.754;2022-12-07T05:01:25;3.40;99.90
22966;DHT22;11649;48.090;9.754;2022-12-07T05:03:52;3.50;99.90
22966;DHT22;11649;48.090;9.754;2022-12-07T05:06:19;3.50;99.90
22966;DHT22;11649;48.090;9.754;2022-12-07T05:08:46;3.50;99.90
22966;DHT22;11649;48.090;9.754;2022-12-07T05:11:14;3.60;99.90
22966;DHT22;11649;48.090;9.754;2022-12-07T05:14:13;3.40;99.90
22966;DHT22;11649;48.090;9.754;2022-12-07T05:16:41;3.50;99.90
22966;DHT22;11649;48.090;9.754;2022-12-07T05:19:09;3.40;99.90
22966;DHT22;11649;48.090;9.754;2022-12-07T05:21:36;3.50;99.90
22966;DHT22;11649;48.090;9.754;2022-12-07T05:24:04;3.40;99.90
22966;DHT22;11649;48.090;9.754;2022-12-07T05:26:31;3.30;99.90
22966;DHT22;11649;48.090;9.754;2022-12-07T05:28:58;3.20;99.90
22966;DHT22;11649;48.090;9.754;2022-12-07T05:31:26;3.00;99.90
22966;DHT22;11649;48.090;9.754;2022-12-07T05:33:53;2.70;99.90
22966;DHT22;11649;48.090;9.754;2022-12-07T05:36:20;2.70;99.90
22966;DHT22;11649;48.090;9.754;2022-12-07T05:38:47;2.80;99.90
22966;DHT22;11649;48.090;9.754;2022-12-07T05:41:18;2.70;99.90
22966;DHT22;11649;48.090;9.754;2022-12-07T05:44:04;2.80;99.90
22966;DHT22;11649;48.090;9.754;2022-12-07T05:46:32;2.80;99.90
22966;DHT22;11649;48.090;9.754;2022-12-07T05:48:59;2.80;99.90
22966;DHT22;11649;48.090;9.754;2022-12-07T05:51:26;3.00;99.90
22966;DHT22;11649;48.090;9.754;2022-12-07T05:53:52;3.10;99.90
22966;DHT22;11649;48.090;9.754;2022-12-07T05:56:19;3.20;99.90
22966;DHT22;11649;48.090;9.754;2022-12-07T05:58:46;3.20;99.90
22966;DHT22;11649;48.090;9.754;2022-12-07T06:01:32;3.20;99.90
22966;DHT22;11649;48.090;9.754;2022-12-07T06:03:59;3.30;99.90
22966;DHT22;11649;48.090;9.754;2022-12-07T06:06:26;3.50;99.90
22966;DHT22;11649;48.090;9.754;2022-12-07T06:08:53;3.50;99.90
22966;DHT22;11649;48.090;9.754;2022-12-07T06:11:20;3.50;99.90
22966;DHT22;11649;48.090;9.754;2022-12-07T06:14:05;3.50;99.90
22966;DHT22;11649;48.090;9.754;2022-12-07T06:16:32;3.30;99.90
22966;DHT22;11649;48.090;9.754;2022-12-07T06:18:59;3.30;99.90
22966;DHT22;11649;48.090;9.754;2022-12-07T06:21:26;3.40;99.90
22966;DHT22;11649;48.090;9.754;2022-12-07T06:23:53;3.40;99.90
22966;DHT22;11649;48.090;9.754;2022-12-07T06:26:20;3.30;99.90
22966;DHT22;11649;48.090;9.754;2022-12-07T06:28:47;3.20;99.90
22966;DHT22;11649;48.090;9.754;2022-12-07T06:31:14;3.20;99.90
22966;DHT22;11649;48.090;9.754;2022-12-07T06:33:41;3.20;99.90
22966;DHT22;11649;48.090;9.754;2022-12-07T06:36:08;3.10;99.90
22966;DHT22;11649;48.090;9.754;2022-12-07T06:38:35;3.20;99.90
22966;DHT22;11649;48.090;9.754;2022-12-07T06:41:02;3.30;99.90
22966;DHT22;11649;48.090;9.754;2022-12-07T06:43:29;3.40;99.90
22966;DHT22;11649;48.090;9.754;2022-12-07T06:45:56;3.40;99.90
22966;DHT22;11649;48.090;9.754;2022-12-07T06:48:23;3.50;99.90
22966;DHT22;11649;48.090;9.754;2022-12-07T06:50:50;3.50;99.90
22966;DHT22;11649;48.090;9.754;2022-12-07T06:53:21;3.50;99.90
22966;DHT22;11649;48.090;9.754;2022-12-07T06:55:47;3.50;99.90
22966;DHT22;11649;48.090;9.754;2022-12-07T06:58:14;3.50;99.90
22966;DHT22;11649;48.090;9.754;2022-12-07T07:00:41;3.30;99.90
22966;DHT22;11649;48.090;9.754;2022-12-07T07:03:08;3.40;99.90
22966;DHT22;11649;48.090;9.754;2022-12-07T07:05:35;3.40;99.90
22966;DHT22;11649;48.090;9.754;2022-12-07T07:08:02;3.30;99.90
22966;DHT22;11649;48.090;9.754;2022-12-07T07:10:49;3.00;99.90
22966;DHT22;11649;48.090;9.754;2022-12-07T07:13:16;3.00;99.90
22966;DHT22;11649;48.090;9.754;2022-12-07T07:15:43;2.90;99.90
22966;DHT22;11649;48.090;9.754;2022-12-07T07:18:10;2.80;99.90
22966;DHT22;11649;48.090;9.754;2022-12-07T07:20:37;2.80;99.90
22966;DHT22;11649;48.090;9.754;2022-12-07T07:23:05;2.90;99.90
22966;DHT22;11649;48.090;9.754;2022-12-07T07:25:32;3.00;99.90
22966;DHT22;11649;48.090;9.754;2022-12-07T07:27:59;3.10;99.90
22966;DHT22;11649;48.090;9.754;2022-12-07T07:30:26;3.20;99.90
22966;DHT22;11649;48.090;9.754;2022-12-07T07:33:03;3.10;99.90
22966;DHT22;11649;48.090;9.754;2022-12-07T07:35:32;3.00;99.90
22966;DHT22;11649;48.090;9.754;2022-12-07T07:38:00;2.80;99.90
22966;DHT22;11649;48.090;9.754;2022-12-07T07:40:27;2.90;99.90
22966;DHT22;11649;48.090;9.754;2022-12-07T07:42:56;3.00;99.90
22966;DHT22;11649;48.090;9.754;2022-12-07T07:45:24;3.20;99.90
22966;DHT22;11649;48.090;9.754;2022-12-07T07:47:51;3.30;99.90
22966;DHT22;11649;48.090;9.754;2022-12-07T07:50:19;3.20;99.90
22966;DHT22;11649;48.090;9.754;2022-12-07T07:52:46;3.10;99.90
22966;DHT22;11649;48.090;9.754;2022-12-07T07:55:13;3.10;99.90
22966;DHT22;11649;48.090;9.754;2022-12-07T07:57:40;2.90;99.90
22966;DHT22;11649;48.090;9.754;2022-12-07T08:00:12;3.00;99.90
22966;DHT22;11649;48.090;9.754;2022-12-07T08:02:40;3.20;99.90
22966;DHT22;11649;48.090;9.754;2022-12-07T08:05:10;3.20;99.90
22966;DHT22;11649;48.090;9.754;2022-12-07T08:07:38;3.30;99.90
22966;DHT22;11649;48.090;9.754;2022-12-07T08:10:06;3.20;99.90
22966;DHT22;11649;48.090;9.754;2022-12-07T08:12:37;3.30;99.90
22966;DHT22;11649;48.090;9.754;2022-12-07T08:15:04;3.40;99.90
22966;DHT22;11649;48.090;9.754;2022-12-07T08:17:33;3.20;99.90
22966;DHT22;11649;48.090;9.754;2022-12-07T08:20:00;3.30;99.90
22966;DHT22;11649;48.090;9.754;2022-12-07T08:22:27;3.40;99.90
22966;DHT22;11649;48.090;9.754;2022-12-07T08:24:54;3.60;99.90
22966;DHT22;11649;48.090;9.754;2022-12-07T08:27:20;3.50;99.90
22966;DHT22;11649;48.090;9.754;2022-12-07T08:29:50;3.60;99.90
22966;DHT22;11649;48.090;9.754;2022-12-07T08:32:18;3.60;99.90
22966;DHT22;11649;48.090;9.754;2022-12-07T08:34:44;3.70;99.90
22966;DHT22;11649;48.090;9.754;2022-12-07T08:37:11;3.70;99.90
22966;DHT22;11649;48.090;9.754;2022-12-07T08:39:38;3.60;99.90
22966;DHT22;11649;48.090;9.754;2022-12-07T08:42:05;3.60;99.90
22966;DHT22;11649;48.090;9.754;2022-12-07T08:44:31;3.70;99.90
22966;DHT22;11649;48.090;9.754;2022-12-07T08:47:01;3.80;99.90
22966;DHT22;11649;48.090;9.754;2022-12-07T08:49:43;3.80;99.90
22966;DHT22;11649;48.090;9.754;2022-12-07T08:52:11;3.80;99.90
22966;DHT22;11649;48.090;9.754;2022-12-07T08:54:38;3.80;99.90
22966;DHT22;11649;48.090;9.754;2022-12-07T08:57:07;3.80;99.90
22966;DHT22;11649;48.090;9.754;2022-12-07T08:59:35;3.80;99.90
22966;DHT22;11649;48.090;9.754;2022-12-07T09:02:04;3.90;99.90
22966;DHT22;11649;48.090;9.754;2022-12-07T09:04:31;3.80;99.90
22966;DHT22;11649;48.090;9.754;2022-12-07T09:06:58;3.90;99.90
22966;DHT22;11649;48.090;9.754;2022-12-07T09:09:25;3.90;99.90
22966;DHT22;11649;48.090;9.754;2022-12-07T09:11:53;4.00;99.90
22966;DHT22;11649;48.090;9.754;2022-12-07T09:14:19;4.10;99.90
22966;DHT22;11649;48.090;9.754;2022-12-07T09:16:46;4.00;99.90
22966;DHT22;11649;48.090;9.754;2022-12-07T09:19:13;3.70;99.90
22966;DHT22;11649;48.090;9.754;2022-12-07T09:21:40;3.70;99.90
22966;DHT22;11649;48.090;9.754;2022-12-07T09:24:07;3.80;99.90
22966;DHT22;11649;48.090;9.754;2022-12-07T09:26:33;3.80;99.90
22966;DHT22;11649;48.090;9.754;2022-12-07T09:29:02;3.60;99.90
22966;DHT22;11649;48.090;9.754;2022-12-07T09:31:30;3.70;99.90
22966;DHT22;11649;48.090;9.754;2022-12-07T09:33:59;3.80;99.90
22966;DHT22;11649;48.090;9.754;2022-12-07T09:36:27;3.90;99.90
22966;DHT22;11649;48.090;9.754;2022-12-07T09:38:55;3.80;99.90
22966;DHT22;11649;48.090;9.754;2022-12-07T09:41:22;3.80;99.90
22966;DHT22;11649;48.090;9.754;2022-12-07T09:43:51;3.90;99.90
22966;DHT22;11649;48.090;9.754;2022-12-07T09:46:19;4.10;99.90
22966;DHT22;11649;48.090;9.754;2022-12-07T09:48:48;4.10;99.90
22966;DHT22;11649;48.090;9.754;2022-12-07T09:51:20;4.30;99.90
22966;DHT22;11649;48.090;9.754;2022-12-07T09:53:51;4.20;99.90
22966;DHT22;11649;48.090;9.754;2022-12-07T09:56:19;4.20;99.90
22966;DHT22;11649;48.090;9.754;2022-12-07T09:58:47;4.30;99.90
22966;DHT22;11649;48.090;9.754;2022-12-07T10:01:17;4.40;99.90
22966;DHT22;11649;48.090;9.754;2022-12-07T10:06:14;3.80;99.90
22966;DHT22;11649;48.090;9.754;2022-12-07T10:08:41;3.90;99.90
22966;DHT22;11649;48.090;9.754;2022-12-07T10:11:10;4.00;99.90
22966;DHT22;11649;48.090;9.754;2022-12-07T10:18:52;4.20;99.90
22966;DHT22;11649;48.090;9.754;2022-12-07T10:21:27;4.00;99.90
22966;DHT22;11649;48.090;9.754;2022-12-07T10:24:04;4.00;99.90
22966;DHT22;11649;48.090;9.754;2022-12-07T10:29:16;3.90;99.90
22966;DHT22;11649;48.090;9.754;2022-12-07T10:31:45;3.80;99.90
22966;DHT22;11649;48.090;9.754;2022-12-07T10:34:26;4.00;99.90
22966;DHT22;11649;48.090;9.754;2022-12-07T10:36:53;4.20;99.90
22966;DHT22;11649;48.090;9.754;2022-12-07T10:39:41;4.30;99.90
22966;DHT22;11649;48.090;9.754;2022-12-07T10:42:22;4.30;99.90
22966;DHT22;11649;48.090;9.754;2022-12-07T10:45:07;4.40;99.90
22966;DHT22;11649;48.090;9.754;2022-12-07T10:50:41;5.00;99.90
22966;DHT22;11649;48.090;9.754;2022-12-07T10:56:01;5.90;99.90
22966;DHT22;11649;48.090;9.754;2022-12-07T10:58:55;6.50;99.90
22966;DHT22;11649;48.090;9.754;2022-12-07T11:01:33;6.60;99.90
22966;DHT22;11649;48.090;9.754;2022-12-07T11:09:49;6.10;99.90
22966;DHT22;11649;48.090;9.754;2022-12-07T11:13:53;6.30;99.90
22966;DHT22;11649;48.090;9.754;2022-12-07T11:21:30;6.60;99.90
22966;DHT22;11649;48.090;9.754;2022-12-07T11:24:03;6.70;99.90
22966;DHT22;11649;48.090;9.754;2022-12-07T11:29:18;6.50;99.90
22966;DHT22;11649;48.090;9.754;2022-12-07T11:37:35;6.90;96.30
22966;DHT22;11649;48.090;9.754;2022-12-07T11:40:26;6.50;97.30
22966;DHT22;11649;48.090;9.754;2022-12-07T11:43:24;6.40;99.90
22966;DHT22;11649;48.090;9.754;2022-12-07T11:51:19;6.70;96.90
22966;DHT22;11649;48.090;9.754;2022-12-07T11:54:01;7.00;94.50
22966;DHT22;11649;48.090;9.754;2022-12-07T11:56:30;7.20;92.30
22966;DHT22;11649;48.090;9.754;2022-12-07T12:02:00;7.00;94.90
22966;DHT22;11649;48.090;9.754;2022-12-07T12:07:21;7.00;93.10
22966;DHT22;11649;48.090;9.754;2022-12-07T12:10:22;7.00;95.00
22966;DHT22;11649;48.090;9.754;2022-12-07T12:15:54;6.60;96.00
22966;DHT22;11649;48.090;9.754;2022-12-07T12:21:18;6.50;94.80
22966;DHT22;11649;48.090;9.754;2022-12-07T12:23:51;6.40;95.50
22966;DHT22;11649;48.090;9.754;2022-12-07T12:26:24;6.70;92.60
22966;DHT22;11649;48.090;9.754;2022-12-07T12:29:01;6.60;93.10
22966;DHT22;11649;48.090;9.754;2022-12-07T12:31:38;6.70;94.80
22966;DHT22;11649;48.090;9.754;2022-12-07T12:40:57;6.90;98.80
22966;DHT22;11649;48.090;9.754;2022-12-07T12:51:42;7.00;94.20
22966;DHT22;11649;48.090;9.754;2022-12-07T12:56:48;7.00;94.00
22966;DHT22;11649;48.090;9.754;2022-12-07T12:59:30;7.00;93.60
22966;DHT22;11649;48.090;9.754;2022-12-07T13:15:52;7.60;89.40
22966;DHT22;11649;48.090;9.754;2022-12-07T13:34:37;8.80;80.40
22966;DHT22;11649;48.090;9.754;2022-12-07T13:37:24;9.40;76.30
22966;DHT22;11649;48.090;9.754;2022-12-07T13:40:18;9.60;73.30
22966;DHT22;11649;48.090;9.754;2022-12-07T13:42:45;9.50;73.70
22966;DHT22;11649;48.090;9.754;2022-12-07T13:45:33;9.90;72.80
22966;DHT22;11649;48.090;9.754;2022-12-07T13:50:56;12.80;61.70
22966;DHT22;11649;48.090;9.754;2022-12-07T13:53:23;13.60;57.20
22966;DHT22;11649;48.090;9.754;2022-12-07T13:55:50;14.00;56.10
22966;DHT22;11649;48.090;9.754;2022-12-07T13:58:21;14.60;52.80
22966;DHT22;11649;48.090;9.754;2022-12-07T14:00:49;14.90;51.40
22966;DHT22;11649;48.090;9.754;2022-12-07T14:05:44;15.10;51.20
22966;DHT22;11649;48.090;9.754;2022-12-07T14:10:54;15.30;50.50
22966;DHT22;11649;48.090;9.754;2022-12-07T14:13:37;15.20;49.90
22966;DHT22;11649;48.090;9.754;2022-12-07T14:18:55;14.00;52.10
22966;DHT22;11649;48.090;9.754;2022-12-07T14:21:26;13.30;53.50
22966;DHT22;11649;48.090;9.754;2022-12-07T14:24:15;12.60;54.70
22966;DHT22;11649;48.090;9.754;2022-12-07T14:26:44;11.50;56.10
22966;DHT22;11649;48.090;9.754;2022-12-07T14:31:59;8.70;66.80
22966;DHT22;11649;48.090;9.754;2022-12-07T14:34:31;8.00;72.60
22966;DHT22;11649;48.090;9.754;2022-12-07T14:36:57;7.50;76.10
22966;DHT22;11649;48.090;9.754;2022-12-07T14:39:24;7.10;82.00
22966;DHT22;11649;48.090;9.754;2022-12-07T14:41:51;6.80;87.60
22966;DHT22;11649;48.090;9.754;2022-12-07T14:44:19;6.70;87.00
22966;DHT22;11649;48.090;9.754;2022-12-07T14:46:51;6.50;89.00
22966;DHT22;11649;48.090;9.754;2022-12-07T14:49:38;6.30;90.50
22966;DHT22;11649;48.090;9.754;2022-12-07T14:52:11;6.10;91.40
22966;DHT22;11649;48.090;9.754;2022-12-07T14:54:59;6.00;92.40
22966;DHT22;11649;48.090;9.754;2022-12-07T14:57:26;5.70;94.70
22966;DHT22;11649;48.090;9.754;2022-12-07T14:59:53;5.50;95.20
22966;DHT22;11649;48.090;9.754;2022-12-07T15:02:20;5.40;95.70
22966;DHT22;11649;48.090;9.754;2022-12-07T15:04:46;5.40;96.70
22966;DHT22;11649;48.090;9.754;2022-12-07T15:07:19;5.30;97.40
22966;DHT22;11649;48.090;9.754;2022-12-07T15:09:47;5.30;98.60
22966;DHT22;11649;48.090;9.754;2022-12-07T15:12:14;5.20;98.90
22966;DHT22;11649;48.090;9.754;2022-12-07T15:14:41;5.20;99.90
22966;DHT22;11649;48.090;9.754;2022-12-07T15:17:11;5.10;99.90
22966;DHT22;11649;48.090;9.754;2022-12-07T15:19:53;5.00;99.90
22966;DHT22;11649;48.090;9.754;2022-12-07T15:22:20;4.90;99.90
22966;DHT22;11649;48.090;9.754;2022-12-07T15:24:46;4.70;99.90
22966;DHT22;11649;48.090;9.754;2022-12-07T15:27:13;4.70;99.90
22966;DHT22;11649;48.090;9.754;2022-12-07T15:29:40;4.70;99.90
22966;DHT22;11649;48.090;9.754;2022-12-07T15:32:07;4.50;99.90
22966;DHT22;11649;48.090;9.754;2022-12-07T15:34:34;4.20;99.90
22966;DHT22;11649;48.090;9.754;2022-12-07T15:37:07;4.10;99.90
22966;DHT22;11649;48.090;9.754;2022-12-07T15:39:35;3.90;99.90
22966;DHT22;11649;48.090;9.754;2022-12-07T15:42:02;3.80;99.90
22966;DHT22;11649;48.090;9.754;2022-12-07T15:44:29;3.70;99.90
22966;DHT22;11649;48.090;9.754;2022-12-07T15:47:15;3.70;99.90
22966;DHT22;11649;48.090;9.754;2022-12-07T15:49:41;3.60;99.90
22966;DHT22;11649;48.090;9.754;2022-12-07T15:52:08;3.50;99.90
22966;DHT22;11649;48.090;9.754;2022-12-07T15:54:35;3.30;99.90
22966;DHT22;11649;48.090;9.754;2022-12-07T15:57:02;3.40;99.90
22966;DHT22;11649;48.090;9.754;2022-12-07T15:59:29;3.40;99.90
22966;DHT22;11649;48.090;9.754;2022-12-07T16:01:56;3.50;99.90
22966;DHT22;11649;48.090;9.754;2022-12-07T16:04:23;3.50;99.90
22966;DHT22;11649;48.090;9.754;2022-12-07T16:06:50;3.50;99.90
22966;DHT22;11649;48.090;9.754;2022-12-07T16:09:18;3.50;99.90
22966;DHT22;11649;48.090;9.754;2022-12-07T16:11:45;3.40;99.90
22966;DHT22;11649;48.090;9.754;2022-12-07T16:14:12;3.30;99.90
22966;DHT22;11649;48.090;9.754;2022-12-07T16:16:39;3.20;99.90
22966;DHT22;11649;48.090;9.754;2022-12-07T16:19:09;3.00;99.90
22966;DHT22;11649;48.090;9.754;2022-12-07T16:21:37;2.90;99.90
22966;DHT22;11649;48.090;9.754;2022-12-07T16:24:04;2.90;99.90
22966;DHT22;11649;48.090;9.754;2022-12-07T16:26:31;2.80;99.90
22966;DHT22;11649;48.090;9.754;2022-12-07T16:28:58;2.70;99.90
22966;DHT22;11649;48.090;9.754;2022-12-07T16:31:26;2.70;99.90
22966;DHT22;11649;48.090;9.754;2022-12-07T16:33:57;2.70;99.90
22966;DHT22;11649;48.090;9.754;2022-12-07T16:36:24;2.70;99.90
22966;DHT22;11649;48.090;9.754;2022-12-07T16:39:13;2.60;99.90
22966;DHT22;11649;48.090;9.754;2022-12-07T16:41:40;2.60;99.90
22966;DHT22;11649;48.090;9.754;2022-12-07T16:44:09;2.50;99.90
22966;DHT22;11649;48.090;9.754;2022-12-07T16:46:36;2.60;99.90
22966;DHT22;11649;48.090;9.754;2022-12-07T16:49:04;2.70;99.90
22966;DHT22;11649;48.090;9.754;2022-12-07T16:51:31;2.80;99.90
22966;DHT22;11649;48.090;9.754;2022-12-07T16:53:58;3.00;99.90
22966;DHT22;11649;48.090;9.754;2022-12-07T16:56:25;3.10;99.90
22966;DHT22;11649;48.090;9.754;2022-12-07T16:58:53;3.10;99.90
22966;DHT22;11649;48.090;9.754;2022-12-07T17:01:22;3.00;99.90
22966;DHT22;11649;48.090;9.754;2022-12-07T17:03:49;3.00;99.90
22966;DHT22;11649;48.090;9.754;2022-12-07T17:06:21;3.00;99.90
22966;DHT22;11649;48.090;9.754;2022-12-07T17:08:49;3.00;99.90
22966;DHT22;11649;48.090;9.754;2022-12-07T17:11:23;3.10;99.90
22966;DHT22;11649;48.090;9.754;2022-12-07T17:13:50;3.10;99.90
22966;DHT22;11649;48.090;9.754;2022-12-07T17:16:36;3.20;99.90
22966;DHT22;11649;48.090;9.754;2022-12-07T17:19:08;3.20;99.90
22966;DHT22;11649;48.090;9.754;2022-12-07T17:21:36;3.20;99.90
22966;DHT22;11649;48.090;9.754;2022-12-07T17:27:50;3.20;99.90
22966;DHT22;11649;48.090;9.754;2022-12-07T17:30:17;3.10;99.90
22966;DHT22;11649;48.090;9.754;2022-12-07T17:32:44;3.00;99.90
22966;DHT22;11649;48.090;9.754;2022-12-07T17:35:11;2.90;99.90
22966;DHT22;11649;48.090;9.754;2022-12-07T17:37:38;3.00;99.90
22966;DHT22;11649;48.090;9.754;2022-12-07T17:40:05;3.10;99.90
22966;DHT22;11649;48.090;9.754;2022-12-07T17:42:32;3.20;99.90
22966;DHT22;11649;48.090;9.754;2022-12-07T17:45:08;3.30;99.90
22966;DHT22;11649;48.090;9.754;2022-12-07T17:47:36;3.30;99.90
22966;DHT22;11649;48.090;9.754;2022-12-07T17:50:05;3.20;99.90
22966;DHT22;11649;48.090;9.754;2022-12-07T17:52:33;2.90;99.90
22966;DHT22;11649;48.090;9.754;2022-12-07T17:55:22;2.80;99.90
22966;DHT22;11649;48.090;9.754;2022-12-07T17:57:49;2.80;99.90
22966;DHT22;11649;48.090;9.754;2022-12-07T18:00:17;2.80;99.90
22966;DHT22;11649;48.090;9.754;2022-12-07T18:02:45;2.80;99.90
22966;DHT22;11649;48.090;9.754;2022-12-07T18:05:12;2.80;99.90
22966;DHT22;11649;48.090;9.754;2022-12-07T18:07:38;2.80;99.90
22966;DHT22;11649;48.090;9.754;2022-12-07T18:10:06;2.90;99.90
22966;DHT22;11649;48.090;9.754;2022-12-07T18:12:34;3.00;99.90
22966;DHT22;11649;48.090;9.754;2022-12-07T18:15:01;2.80;99.90
22966;DHT22;11649;48.090;9.754;2022-12-07T18:17:28;2.80;99.90
22966;DHT22;11649;48.090;9.754;2022-12-07T18:19:55;2.90;99.90
22966;DHT22;11649;48.090;9.754;2022-12-07T18:22:22;2.90;99.90
22966;DHT22;11649;48.090;9.754;2022-12-07T18:24:48;2.80;99.90
22966;DHT22;11649;48.090;9.754;2022-12-07T18:27:15;2.90;99.90
22966;DHT22;11649;48.090;9.754;2022-12-07T18:29:42;3.00;99.90
22966;DHT22;11649;48.090;9.754;2022-12-07T18:32:08;3.00;99.90